createdAt,value
2019-06-07T00:01:08.432Z,17.66
2019-06-07T00:04:24.779Z,17.63
2019-06-07T00:07:41.512Z,17.61
2019-06-07T00:10:58.140Z,17.60
2019-06-07T00:14:16.661Z,17.56
2019-06-07T00:17:33.238Z,17.51
2019-06-07T00:20:49.999Z,17.50
2019-06-07T00:24:08.617Z,17.47
2019-06-07T00:27:25.201Z,17.44
2019-06-07T00:30:51.261Z,17.44
2019-06-07T00:34:00.371Z,17.42
2019-06-07T00:37:19.790Z,17.40
2019-06-07T00:40:35.355Z,17.37
2019-06-07T00:43:52.010Z,17.36
2019-06-07T00:47:08.668Z,17.34
2019-06-07T00:50:25.719Z,17.32
2019-06-07T00:53:42.392Z,17.29
2019-06-07T00:56:59.132Z,17.27
2019-06-07T01:00:22.323Z,17.25
2019-06-07T01:03:36.160Z,17.23
2019-06-07T01:06:52.881Z,17.21
2019-06-07T01:10:11.014Z,17.20
2019-06-07T01:13:27.670Z,17.19
2019-06-07T01:16:57.540Z,17.17
2019-06-07T01:20:05.785Z,17.15
2019-06-07T01:23:59.428Z,17.15
2019-06-07T01:26:41.089Z,17.15
2019-06-07T01:29:57.847Z,17.11
2019-06-07T01:33:15.681Z,17.08
2019-06-07T01:36:32.719Z,17.07
2019-06-07T01:39:49.426Z,17.03
2019-06-07T01:43:06.127Z,17.03
2019-06-07T01:46:25.362Z,17.05
2019-06-07T01:49:41.117Z,17.10
2019-06-07T01:52:57.737Z,17.13
2019-06-07T01:56:14.480Z,17.18
2019-06-07T01:59:31.924Z,17.22
2019-06-07T02:02:48.967Z,17.26
2019-06-07T02:06:05.606Z,17.32
2019-06-07T02:09:23.565Z,17.35
2019-06-07T02:12:43.471Z,17.39
2019-06-07T02:15:59.303Z,17.40
2019-06-07T02:19:15.914Z,17.43
2019-06-07T02:22:32.697Z,17.44
2019-06-07T02:25:50.596Z,17.47
2019-06-07T02:29:07.460Z,17.49
2019-06-07T02:32:26.953Z,17.50
2019-06-07T02:35:42.601Z,17.53
2019-06-07T02:38:59.235Z,17.55
2019-06-07T02:42:16.612Z,17.58
2019-06-07T02:45:42.280Z,17.58
2019-06-07T02:48:51.608Z,17.57
2019-06-07T02:52:08.357Z,17.60
2019-06-07T02:55:29.112Z,17.61
2019-06-07T02:58:43.530Z,17.62
2019-06-07T03:02:00.230Z,17.64
2019-06-07T03:05:18.227Z,17.68
2019-06-07T03:08:36.607Z,17.69
2019-06-07T03:11:56.005Z,17.71
2019-06-07T03:15:31.997Z,17.77
2019-06-07T03:18:55.544Z,17.81
2019-06-07T03:22:12.997Z,17.86
2019-06-07T03:25:30.834Z,17.88
2019-06-07T03:28:48.205Z,17.94
2019-06-07T03:32:05.005Z,18.02
2019-06-07T03:35:21.779Z,18.04
2019-06-07T03:38:39.855Z,18.04
2019-06-07T03:42:06.191Z,18.10
2019-06-07T03:45:17.354Z,18.13
2019-06-07T03:48:36.413Z,18.16
2019-06-07T03:51:52.645Z,18.18
2019-06-07T03:55:10.274Z,18.23
2019-06-07T03:58:32.590Z,18.25
2019-06-07T04:01:45.402Z,18.34
2019-06-07T04:05:02.237Z,18.39
2019-06-07T04:08:18.848Z,18.43
2019-06-07T04:11:39.087Z,18.53
2019-06-07T04:14:54.249Z,18.63
2019-06-07T04:18:10.892Z,18.74
2019-06-07T04:21:29.746Z,18.77
2019-06-07T04:24:48.674Z,18.87
2019-06-07T04:28:05.299Z,18.95
2019-06-07T04:31:22.221Z,18.94
2019-06-07T04:34:42.926Z,18.85
2019-06-07T04:37:57.557Z,18.82
2019-06-07T04:41:15.379Z,18.82
2019-06-07T04:44:37.042Z,18.89
2019-06-07T04:47:54.644Z,18.98
2019-06-07T04:51:11.845Z,19.03
2019-06-07T04:54:31.078Z,19.05
2019-06-07T04:57:47.204Z,19.07
2019-06-07T05:01:03.976Z,19.12
2019-06-07T05:04:20.634Z,19.06
2019-06-07T05:07:39.974Z,19.06
2019-06-07T05:11:00.155Z,19.20
2019-06-07T05:14:18.060Z,19.30
2019-06-07T05:17:37.208Z,19.41
2019-06-07T05:20:53.822Z,19.43
2019-06-07T05:24:11.003Z,19.09
2019-06-07T05:27:27.947Z,18.92
2019-06-07T05:31:05.559Z,18.92
2019-06-07T05:34:04.859Z,18.75
2019-06-07T05:37:25.093Z,18.81
2019-06-07T05:40:48.595Z,18.79
2019-06-07T05:44:12.772Z,18.60
2019-06-07T05:47:25.570Z,18.73
2019-06-07T05:50:55.457Z,18.67
2019-06-07T05:54:01.055Z,18.71
2019-06-07T05:57:17.793Z,18.45
2019-06-07T06:00:36.852Z,18.39
2019-06-07T06:03:55.293Z,18.42
2019-06-07T06:07:16.738Z,18.21
2019-06-07T06:10:39.094Z,18.21
2019-06-07T06:14:06.544Z,18.10
2019-06-07T06:17:14.669Z,18.04
2019-06-07T06:20:33.207Z,17.96
2019-06-07T06:23:51.852Z,17.85
2019-06-07T06:27:40.903Z,17.62
2019-06-07T06:30:28.888Z,17.45
2019-06-07T06:33:47.471Z,17.38
2019-06-07T06:37:03.993Z,17.42
2019-06-07T06:40:20.917Z,17.33
2019-06-07T06:43:38.566Z,17.34
2019-06-07T06:46:58.270Z,17.22
2019-06-07T06:50:15.033Z,17.01
2019-06-07T06:53:31.700Z,16.99
2019-06-07T06:56:50.357Z,17.00
2019-06-07T07:00:06.704Z,16.92
2019-06-07T07:03:56.737Z,16.86
2019-06-07T07:06:42.750Z,16.81
2019-06-07T07:10:01.061Z,16.87
2019-06-07T07:13:18.857Z,17.07
2019-06-07T07:16:36.066Z,17.18
2019-06-07T07:19:55.424Z,17.28
2019-06-07T07:23:11.435Z,17.32
2019-06-07T07:26:28.440Z,17.39
2019-06-07T07:29:47.861Z,17.47
2019-06-07T07:33:05.988Z,17.47
2019-06-07T07:36:38.132Z,17.61
2019-06-07T07:39:41.419Z,17.49
2019-06-07T07:42:58.638Z,17.38
2019-06-07T07:46:30.812Z,17.33
2019-06-07T07:49:33.767Z,17.23
2019-06-07T07:52:59.518Z,17.34
2019-06-07T07:56:09.293Z,17.55
2019-06-07T07:59:41.366Z,17.68
2019-06-07T08:02:44.245Z,18.02
2019-06-07T08:06:00.870Z,18.21
2019-06-07T08:09:18.820Z,18.15
2019-06-07T08:12:55.804Z,18.41
2019-06-07T08:15:59.115Z,18.65
2019-06-07T08:19:13.083Z,18.66
2019-06-07T08:22:29.997Z,18.66
2019-06-07T08:25:47.181Z,18.58
2019-06-07T08:29:03.838Z,18.67
2019-06-07T08:32:22.312Z,18.88
2019-06-07T08:36:06.115Z,18.98
2019-06-07T08:39:07.175Z,18.94
2019-06-07T08:42:23.831Z,18.95
2019-06-07T08:45:41.994Z,19.03
2019-06-07T08:49:02.645Z,18.97
2019-06-07T08:52:17.334Z,19.28
2019-06-07T08:55:34.055Z,19.46
2019-06-07T08:58:54.943Z,19.41
2019-06-07T09:02:22.842Z,19.32
2019-06-07T09:05:27.705Z,19.56
2019-06-07T09:08:44.427Z,19.46
2019-06-07T09:12:08.145Z,19.48
2019-06-07T09:15:24.142Z,19.61
2019-06-07T09:18:43.811Z,19.70
2019-06-07T09:22:04.586Z,19.74
2019-06-07T09:25:21.450Z,19.99
2019-06-07T09:28:38.930Z,20.01
2019-06-07T09:31:55.922Z,19.91
2019-06-07T09:35:17.607Z,20.24
2019-06-07T09:38:32.801Z,20.57
2019-06-07T09:41:50.413Z,20.43
2019-06-07T09:45:11.664Z,20.24
2019-06-07T09:49:09.060Z,20.41
2019-06-07T09:51:43.951Z,20.52
2019-06-07T09:55:06.078Z,20.33
2019-06-07T09:58:53.275Z,20.56
2019-06-07T10:01:39.516Z,20.54
2019-06-07T10:04:58.851Z,20.90
2019-06-07T10:09:15.161Z,21.15
2019-06-07T10:11:33.128Z,20.81
2019-06-07T10:14:49.945Z,20.69
2019-06-07T10:18:07.111Z,20.98
2019-06-07T10:21:24.586Z,20.79
2019-06-07T10:24:41.302Z,20.98
2019-06-07T10:27:58.027Z,20.81
2019-06-07T10:31:14.820Z,21.08
2019-06-07T10:34:31.385Z,21.48
2019-06-07T10:37:52.110Z,21.58
2019-06-07T10:41:08.977Z,21.69
2019-06-07T10:44:26.294Z,21.85
2019-06-07T10:47:43.108Z,21.81
2019-06-07T10:50:59.877Z,22.24
2019-06-07T10:54:26.771Z,22.47
2019-06-07T10:57:35.185Z,22.31
2019-06-07T11:00:51.906Z,22.30
2019-06-07T11:04:09.595Z,22.11
2019-06-07T11:07:26.666Z,22.08
2019-06-07T11:10:43.572Z,22.00
2019-06-07T11:14:00.353Z,22.17
2019-06-07T11:17:17.899Z,22.08
2019-06-07T11:20:34.653Z,22.00
2019-06-07T11:23:53.082Z,21.92
2019-06-07T11:27:11.687Z,21.97
2019-06-07T11:30:28.300Z,21.92
2019-06-07T11:33:45.034Z,21.92
2019-06-07T11:37:02.086Z,22.08
2019-06-07T11:40:34.378Z,22.39
2019-06-07T11:43:37.898Z,22.54
2019-06-07T11:46:54.566Z,22.77
2019-06-07T11:50:15.807Z,22.79
2019-06-07T11:53:32.519Z,22.78
2019-06-07T11:56:49.262Z,22.90
2019-06-07T12:00:07.373Z,22.92
2019-06-07T12:03:24.069Z,22.96
2019-06-07T12:06:41.486Z,23.06
2019-06-07T12:09:58.322Z,23.23
2019-06-07T12:13:15.546Z,23.27
2019-06-07T12:16:33.376Z,23.36
2019-06-07T12:19:50.129Z,23.33
2019-06-07T12:23:09.894Z,23.44
2019-06-07T12:26:26.690Z,23.94
2019-06-07T12:29:43.385Z,24.22
2019-06-07T12:33:00.016Z,24.14
2019-06-07T12:36:17.796Z,23.83
2019-06-07T12:39:34.512Z,23.67
2019-06-07T12:42:51.546Z,23.71
2019-06-07T12:46:08.515Z,23.92
2019-06-07T12:49:25.645Z,24.01
2019-06-07T12:52:43.911Z,24.06
2019-06-07T12:56:01.701Z,24.10
2019-06-07T12:59:20.043Z,24.00
2019-06-07T13:02:36.953Z,24.11
2019-06-07T13:05:53.632Z,24.17
2019-06-07T13:09:11.420Z,24.03
2019-06-07T13:12:28.281Z,24.11
2019-06-07T13:15:45.116Z,24.03
2019-06-07T13:19:01.823Z,24.09
2019-06-07T13:22:18.651Z,24.15
2019-06-07T13:25:46.309Z,24.13
2019-06-07T13:28:53.641Z,24.11
2019-06-07T13:32:10.283Z,24.19
2019-06-07T13:35:29.490Z,24.17
2019-06-07T13:38:45.231Z,24.19
2019-06-07T13:42:03.784Z,24.25
2019-06-07T13:45:22.310Z,24.19
2019-06-07T13:48:39.241Z,24.24
2019-06-07T13:52:07.783Z,24.20
2019-06-07T13:55:33.190Z,24.25
2019-06-07T14:02:44.722Z,24.60
2019-06-07T14:06:03.378Z,24.71
2019-06-07T14:09:25.183Z,24.61
2019-06-07T14:12:41.904Z,24.62
2019-06-07T14:16:16.017Z,24.65
2019-06-07T14:19:34.680Z,24.55
2019-06-07T14:22:54.327Z,24.55
2019-06-07T14:26:14.240Z,24.44
2019-06-07T14:29:31.916Z,24.42
2019-06-07T14:32:48.604Z,24.49
2019-06-07T14:36:05.488Z,24.58
2019-06-07T14:39:23.042Z,24.68
2019-06-07T14:42:39.961Z,24.69
2019-06-07T14:45:56.809Z,24.89
2019-06-07T14:49:13.662Z,25.19
2019-06-07T14:52:30.813Z,25.14
2019-06-07T14:55:47.511Z,25.44
2019-06-07T14:59:04.520Z,25.23
2019-06-07T15:02:21.309Z,24.89
2019-06-07T15:05:47.560Z,24.92
2019-06-07T15:09:12.521Z,24.93
2019-06-07T15:12:35.253Z,24.72
2019-06-07T15:15:52.281Z,24.60
2019-06-07T15:19:09.197Z,24.94
2019-06-07T15:22:25.859Z,24.89
2019-06-07T15:25:43.349Z,24.69
2019-06-07T15:29:00.745Z,24.52
2019-06-07T15:32:17.459Z,24.27
2019-06-07T15:35:35.974Z,24.14
2019-06-07T15:38:57.061Z,24.08
2019-06-07T15:42:15.487Z,24.18
2019-06-07T15:45:33.672Z,24.04
2019-06-07T15:48:50.603Z,23.87
2019-06-07T15:52:07.291Z,23.75
2019-06-07T15:55:24.419Z,23.63
2019-06-07T15:58:41.459Z,23.41
2019-06-07T16:01:58.704Z,23.32
2019-06-07T16:05:15.813Z,23.29
2019-06-07T16:08:34.771Z,23.24
2019-06-07T16:11:51.369Z,23.23
2019-06-07T16:15:08.338Z,23.19
2019-06-07T16:18:25.109Z,23.45
2019-06-07T16:21:41.794Z,23.73
2019-06-07T16:24:58.489Z,23.98
2019-06-07T16:28:15.134Z,24.08
2019-06-07T16:31:31.871Z,24.15
2019-06-07T16:34:51.188Z,24.16
2019-06-07T16:38:08.225Z,24.10
2019-06-07T16:41:24.897Z,24.07
2019-06-07T16:44:42.613Z,24.14
2019-06-07T16:47:59.939Z,24.41
2019-06-07T16:51:16.910Z,24.46
2019-06-07T16:54:47.598Z,24.30
2019-06-07T16:58:14.943Z,24.26
2019-06-07T17:01:33.384Z,24.25
2019-06-07T17:04:54.916Z,24.35
2019-06-07T17:08:14.901Z,24.18
2019-06-07T17:11:31.769Z,24.22
2019-06-07T17:14:49.863Z,24.02
2019-06-07T17:18:13.408Z,24.14
2019-06-07T17:22:06.121Z,24.00
2019-06-07T17:25:24.280Z,23.87
2019-06-07T17:29:05.298Z,23.77
2019-06-07T17:32:23.586Z,23.64
2019-06-07T17:35:40.299Z,23.70
2019-06-07T17:38:57.590Z,23.57
2019-06-07T17:42:14.528Z,23.44
2019-06-07T17:45:32.971Z,23.34
2019-06-07T17:48:49.789Z,23.19
2019-06-07T17:52:06.544Z,23.06
2019-06-07T17:55:23.618Z,22.99
2019-06-07T17:58:40.573Z,22.84
2019-06-07T18:02:15.076Z,22.76
2019-06-07T18:05:16.998Z,22.68
2019-06-07T18:08:35.429Z,22.57
2019-06-07T18:11:52.334Z,22.46
2019-06-07T18:15:12.717Z,22.55
2019-06-07T18:18:29.628Z,22.44
2019-06-07T18:21:47.325Z,22.34
2019-06-07T18:25:23.993Z,22.13
2019-06-07T18:28:40.734Z,21.97
2019-06-07T18:31:57.594Z,21.82
2019-06-07T18:35:14.361Z,21.73
2019-06-07T18:38:31.182Z,21.61
2019-06-07T18:41:49.031Z,21.50
2019-06-07T18:45:05.889Z,21.35
2019-06-07T18:48:22.711Z,21.24
2019-06-07T18:51:39.498Z,21.12
2019-06-07T18:55:05.147Z,21.02
2019-06-07T18:58:22.292Z,20.90
2019-06-07T19:01:39.157Z,20.75
2019-06-07T19:04:56.344Z,20.65
2019-06-07T19:08:13.400Z,20.54
2019-06-07T19:11:30.216Z,20.43
2019-06-07T19:14:46.980Z,20.32
2019-06-07T19:18:04.174Z,20.20
2019-06-07T19:21:21.033Z,20.11
2019-06-07T19:24:37.812Z,20.00
2019-06-07T19:27:54.916Z,19.92
2019-06-07T19:31:11.992Z,19.80
2019-06-07T19:34:28.903Z,19.72
2019-06-07T19:37:48.286Z,19.62
2019-06-07T19:41:18.990Z,19.52
2019-06-07T19:44:23.431Z,19.43
2019-06-07T19:47:52.633Z,19.36
2019-06-07T19:51:09.614Z,19.27
2019-06-07T19:54:26.284Z,19.21
2019-06-07T19:57:42.982Z,19.16
2019-06-07T20:00:59.853Z,19.07
2019-06-07T20:04:16.634Z,19.00
2019-06-07T20:07:33.342Z,18.93
2019-06-07T20:10:50.036Z,18.86
2019-06-07T20:14:06.812Z,18.83
2019-06-07T20:17:23.627Z,18.78
2019-06-07T20:20:40.339Z,18.70
2019-06-07T20:24:22.779Z,18.63
2019-06-07T20:27:20.534Z,18.56
2019-06-07T20:30:37.380Z,18.48
2019-06-07T20:33:54.129Z,18.43
2019-06-07T20:37:11.195Z,18.39
2019-06-07T20:40:28.142Z,18.35
